Latest Coastal Weather Observations for Hervey Bay

IDQ60701

Issued at 4:15 am EST Monday 21 April 2014 (issued every 10 minutes, with the page automatically refreshed every 10 minutes)

About coastal observations | Map of coastal stations | Coastal observations for QLD | Marine services | Other Formats
Station Details ID: 040405 Name: HERVEY BAY AIRPORT Lat: -25.32 Lon: 152.88 Height: 12.98 m
Data from the previous 72 hours. | See also: Recent months at Hervey Bay
Date/Time
EST
Temp

°C
Wind Pressure Rain
since 9am
mm
Weather Cloud Vis
km
Sea
Height
m
Swell
Dir
 
Speed
knots
Gust
knots
hPa Trend Height
m
Period
s
Dir
21/04:00am 14.8 ENE 0 0 1018.5 - 0.0 - - 10 - - - -
21/03:30am 14.9 CALM 0 0 1018.3 - 0.0 - - 10 - - - -
21/03:00am 15.0 CALM 0 0 1018.1 - 0.0 - - 10 - - - -
21/02:30am 15.2 CALM 0 0 1018.2 - 0.0 - - 10 - - - -
21/02:00am 15.3 CALM 0 0 1018.3 - 0.0 - - 10 - - - -
21/01:30am 15.3 CALM 0 0 1018.3 - 0.0 - - 10 - - - -
21/01:00am 15.4 CALM 0 0 1018.5 - 0.0 - - 10 - - - -
21/12:30am 15.6 CALM 0 0 1018.7 - 0.0 - - 10 - - - -
21/12:00am 15.7 ENE 0 0 1018.7 - 0.0 - - 10 - - - -
 
Date/Time
EST
Temp

°C
Wind Pressure Rain
since 9am
mm
Weather Cloud Vis
km
Sea
Height
m
Swell
Dir
 
Speed
knots
Gust
knots
hPa Trend Height
m
Period
s
Dir
20/11:30pm 16.0 CALM 0 0 1018.8 - 0.0 - - 10 - - - -
20/11:00pm 16.2 CALM 0 0 1018.9 - 0.0 - - 10 - - - -
20/10:30pm 16.5 CALM 0 0 1018.9 - 0.0 - - 10 - - - -
20/10:00pm 16.7 CALM 0 0 1019.0 - 0.0 - - 10 - - - -
20/09:30pm 17.2 CALM 0 0 1018.9 - 0.0 - - 10 - - - -
20/09:00pm 17.6 CALM 0 0 1018.8 - 0.0 - - 10 - - - -
20/08:30pm 18.0 CALM 0 0 1018.7 - 0.0 - - 10 - - - -
20/08:00pm 18.7 CALM 0 0 1018.4 - 0.0 - - 10 - - - -
20/07:30pm 19.5 E 2 4 1018.1 - 0.0 - - 10 - - - -
20/07:00pm 20.7 NE 4 4 1017.8 - 0.0 - - 10 - - - -
20/06:30pm 22.9 NNE 4 4 1017.4 - 0.0 - - 10 - - - -
20/06:00pm 23.2 NNE 4 5 1016.9 - 0.0 - - 10 - - - -
20/05:30pm 24.0 N 5 8 1016.8 - 0.0 - - 10 - - - -
20/05:00pm 24.8 N 6 8 1016.5 - 0.0 - - 10 - - - -
20/04:30pm 25.8 NNE 8 11 1016.0 - 0.0 - - 10 - - - -
20/04:00pm 26.4 N 8 11 1015.8 - 0.0 - - 10 - - - -
20/03:30pm 27.3 N 8 11 1015.5 - 0.0 - - 10 - - - -
20/03:00pm 27.7 N 7 10 1015.4 - 0.0 - - 10 - - - -
20/02:30pm 28.0 N 7 8 1015.6 - 0.0 - - 10 - - - -
20/02:00pm 27.7 N 8 10 1015.7 - 0.0 - - 10 - - - -
20/01:30pm 27.2 NNW 8 11 1015.7 - 0.0 - - 10 - - - -
20/01:00pm 27.7 N 8 11 1016.0 - 0.0 - - 10 - - - -
20/12:30pm 27.6 NNW 7 10 1016.5 - 0.0 - - 10 - - - -
20/12:00pm 27.4 N 7 10 1016.8 - 0.0 - - 10 - - - -
20/11:30am 27.4 N 6 13 1017.4 - 0.0 - - 10 - - - -
20/11:00am 25.7 ESE 5 8 1017.8 - 0.0 - - 10 - - - -
20/10:30am 25.4 ENE 6 8 1018.0 - 0.0 - - 10 - - - -
20/10:00am 25.4 NE 4 6 1018.3 - 0.0 - - 10 - - - -
20/09:30am 24.3 E 4 5 1018.3 - 0.0 - - 10 - - - -
20/09:00am 23.5 WSW 3 5 1018.2 - 0.0 - - 10 - - - -
20/08:30am 22.1 SSW 2 4 1018.1 - 0.0 - - 10 - - - -
20/08:00am 19.3 SSW 4 5 1017.9 - 0.0 - - 10 - - - -
20/07:30am 17.6 SSW 4 5 1017.7 - 0.0 - - 10 - - - -
20/07:00am 15.9 SW 1 3 1017.4 - 0.0 - - 10 - - - -
20/06:30am 14.3 SW 3 4 1017.1 - 0.0 - - 10 - - - -
20/06:00am 13.6 SSW 1 4 1016.7 - 0.0 - - 10 - - - -
20/05:30am 14.2 SW 1 4 1016.5 - 0.0 - - 10 - - - -
20/05:00am 13.9 CALM 0 0 1016.1 - 0.0 - - 10 - - - -
20/04:30am 14.1 CALM 0 0 1015.7 - 0.0 - - 10 - - - -
20/04:00am 14.2 CALM 0 0 1015.5 - 0.0 - - 10 - - - -
20/03:30am 14.5 WNW 1 4 1015.4 - 0.0 - - 10 - - - -
20/03:00am 14.5 CALM 0 0 1015.4 - 0.0 - - 10 - - - -
20/02:30am 15.0 CALM 0 0 1015.6 - 0.0 - - 10 - - - -
20/02:00am 15.0 S 2 4 1015.7 - 0.0 - - 10 - - - -
20/01:30am 15.3 SW 3 4 1015.8 - 0.0 - - 10 - - - -
20/01:00am 14.9 E 1 4 1015.9 - 0.0 - - 10 - - - -
20/12:30am 15.1 CALM 0 0 1016.0 - 0.0 - - 10 - - - -
20/12:00am 15.3 CALM 0 0 1016.0 - 0.0 - - 10 - - - -
 
Date/Time
EST
Temp

°C
Wind Pressure Rain
since 9am
mm
Weather Cloud Vis
km
Sea
Height
m
Swell
Dir
 
Speed
knots
Gust
knots
hPa Trend Height
m
Period
s
Dir
19/11:30pm 15.6 CALM 0 0 1016.2 - 0.0 - - 10 - - - -
19/11:00pm 15.6 CALM 0 0 1016.4 - 0.0 - - 10 - - - -
19/10:30pm 15.8 CALM 0 0 1016.5 - 0.0 - - 10 - - - -
19/10:00pm 16.1 CALM 0 0 1016.5 - 0.0 - - 10 - - - -
19/09:30pm 16.2 CALM 0 0 1016.5 - 0.0 - - 10 - - - -
19/09:00pm 16.6 CALM 0 0 1016.2 - 0.0 - - 10 - - - -
19/08:30pm 16.9 CALM 0 0 1016.2 - 0.0 - - 10 - - - -
19/08:00pm 17.4 CALM 0 0 1016.0 - 0.0 - - 10 - - - -
19/07:30pm 17.8 CALM 0 0 1015.7 - 0.0 - - 10 - - - -
19/07:00pm 18.7 E 3 5 1015.4 - 0.0 - - 10 - - - -
19/06:30pm 19.8 CALM 0 3 1014.9 - 0.0 - - 10 - - - -
19/06:00pm 21.1 ESE 3 7 1014.4 - 0.0 - - 10 - - - -
19/05:30pm 23.5 N 4 5 1014.2 - 0.0 - - 10 - - - -
19/05:00pm 25.3 N 5 6 1013.9 - 0.0 - - 10 - - - -
19/04:30pm 26.7 ENE 7 8 1013.6 - 0.0 - - 10 - - - -
19/04:00pm 27.2 NE 8 10 1013.4 - 0.0 - - 10 - - - -
19/03:30pm 27.3 NE 8 10 1013.4 - 0.0 - - 10 - - - -
19/03:00pm 27.4 ENE 9 12 1013.4 - 0.0 - - 10 - - - -
19/02:30pm 27.6 ENE 10 12 1013.6 - 0.0 - - 10 - - - -
19/02:00pm 28.1 S 5 8 1013.8 - 0.0 - - 10 - - - -
19/01:30pm 28.3 SW 6 9 1014.0 - 0.0 - - 10 - - - -
19/01:00pm 28.2 W 5 9 1014.4 - 0.0 - - 10 - - - -
19/12:30pm 28.0 W 8 12 1014.8 - 0.0 - - 10 - - - -
19/12:00pm 27.2 SSW 6 9 1015.2 - 0.0 - - 10 - - - -
19/11:30am 27.3 WSW 6 10 1015.9 - 0.0 - - 10 - - - -
19/11:00am 26.7 S 9 12 1016.4 - 0.0 - - 10 - - - -
19/10:30am 26.5 SSW 8 11 1016.8 - 0.0 - - 10 - - - -
19/10:00am 25.6 SSW 8 11 1017.1 - 0.0 - - 10 - - - -
19/09:30am 24.2 SW 7 10 1017.4 - 0.0 - - 10 - - - -
19/09:00am 22.4 SSW 5 8 1017.4 - 0.0 - - 10 - - - -
19/08:30am 20.3 SSW 5 8 1017.5 - 0.0 - - 10 - - - -
19/08:04am 18.8 SSW 4 6 1017.4 - 0.0 - Partly cloudy 10 - - - -
19/08:00am 18.9 SSW 4 6 1017.3 - 0.0 - Partly cloudy 10 - - - -
19/07:56am 18.7 SSW 4 6 1017.3 - 0.0 - Partly cloudy 10 - - - -
19/07:30am 18.1 SW 6 8 1017.1 - 0.0 - Cloudy 0.6 - - - -
19/07:00am 17.5 SW 5 7 1016.9 - 0.0 - Cloudy 0.1 - - - -
19/06:30am 17.0 SSW 6 8 1016.7 - 0.0 - Cloudy 0.1 - - - -
19/06:00am 17.1 SW 5 7 1016.4 - 0.0 - Cloudy 0.1 - - - -
19/05:30am 16.9 SW 4 6 1016.3 - 0.0 - Cloudy 0.2 - - - -
19/05:20am 15.5 SW 3 4 1016.2 - 0.0 - Partly cloudy 4 - - - -
19/05:15am 15.2 SW 3 4 1016.2 - 0.0 - Partly cloudy 10 - - - -
19/05:00am 14.8 WSW 4 5 1016.0 - 0.0 - - 10 - - - -
19/04:30am 15.0 CALM 0 0 1015.9 - 0.0 - - 10 - - - -
19/04:00am 15.7 CALM 0 0 1015.9 - 0.0 - - 10 - - - -
19/03:30am 16.3 W 4 5 1015.9 - 0.0 - - 10 - - - -
19/03:00am 16.4 CALM 0 0 1015.7 - 0.0 - - 10 - - - -
19/02:30am 16.6 WSW 2 5 1015.8 - 0.0 - - 10 - - - -
19/02:00am 16.7 CALM 0 0 1015.9 - 0.0 - - 10 - - - -
19/01:30am 17.2 CALM 0 0 1016.0 - 0.0 - - 10 - - - -
19/01:00am 17.2 WSW 3 6 1016.1 - 0.0 - - 10 - - - -
19/12:30am 17.5 CALM 0 0 1016.2 - 0.0 - - 10 - - - -
19/12:00am 17.8 CALM 0 0 1016.2 - 0.0 - - 10 - - - -
 
Date/Time
EST
Temp

°C
Wind Pressure Rain
since 9am
mm
Weather Cloud Vis
km
Sea
Height
m
Swell
Dir
 
Speed
knots
Gust
knots
hPa Trend Height
m
Period
s
Dir
18/11:30pm 18.2 CALM 0 0 1016.5 - 0.0 - - 10 - - - -
18/11:00pm 18.3 CALM 0 0 1016.5 - 0.0 - - 10 - - - -
18/10:30pm 18.5 ENE 3 3 1016.4 - 0.0 - - 10 - - - -
18/10:00pm 19.0 NE 3 4 1016.4 - 0.0 - - 10 - - - -
18/09:30pm 20.2 NNE 4 5 1016.5 - 0.0 - - 10 - - - -
18/09:00pm 20.5 NE 4 5 1016.4 - 0.0 - - 10 - - - -
18/08:30pm 21.1 NE 5 6 1016.4 - 0.0 - - 10 - - - -
18/08:00pm 21.8 NE 4 5 1016.2 - 0.0 - - 10 - - - -
18/07:30pm 22.7 ENE 5 7 1015.9 - 0.0 - - 10 - - - -
18/07:00pm 23.1 ENE 6 9 1015.6 - 0.0 - - 10 - - - -
18/06:30pm 23.3 ENE 7 10 1015.2 - 0.0 - - 10 - - - -
18/06:00pm 23.7 E 7 9 1014.7 - 0.0 - - 10 - - - -
18/05:30pm 24.1 E 9 11 1014.3 - 0.0 - - 10 - - - -
18/05:00pm 25.7 N 3 4 1013.9 - 0.0 - - 10 - - - -
18/04:30pm 26.2 N 5 7 1013.6 - 0.0 - - 10 - - - -
18/04:00pm 26.6 NNE 6 8 1013.4 - 0.0 - - 10 - - - -
18/03:30pm 28.4 SW 3 8 1013.2 - 0.0 - - 10 - - - -
18/03:00pm 28.2 WSW 7 12 1013.1 - 0.0 - - 10 - - - -
18/02:30pm 28.2 SSW 5 8 1013.3 - 0.0 - - 10 - - - -
18/02:00pm 27.0 ESE 6 8 1013.4 - 0.0 - - 10 - - - -
18/01:30pm 26.4 E 7 9 1013.7 - 0.0 - Partly cloudy 10 - - - -
18/01:00pm 26.6 NE 6 8 1013.9 - 0.0 - - 10 - - - -
18/12:30pm 24.8 NNE 5 7 1014.7 - 0.0 - Partly cloudy 10 - - - -
18/12:00pm 25.2 ENE 8 10 1014.9 - 0.0 - Cloudy 10 - - - -
18/11:30am 25.7 E 7 10 1015.5 - 0.0 - Partly cloudy 10 - - - -
18/11:00am 24.7 E 7 9 1016.1 - 0.0 - Partly cloudy 10 - - - -
18/10:30am 26.0 NNW 4 7 1016.5 - 0.0 - Partly cloudy 10 - - - -
18/10:00am 24.6 NW 5 8 1016.8 - 0.0 - Partly cloudy 10 - - - -
18/09:30am 24.8 NNW 1 5 1016.9 - 0.0 - Partly cloudy 10 - - - -
18/09:00am 23.9 SW 2 5 1016.9 - 0.0 - Mostly clear 10 - - - -
18/08:30am 22.7 SW 3 4 1017.0 - 0.0 - - 10 - - - -
18/08:00am 21.3 S 3 4 1016.8 - 0.0 - - 10 - - - -
18/07:30am 19.0 CALM 0 0 1016.9 - 0.0 - - 10 - - - -
18/07:00am 18.0 SSW 4 5 1016.9 - 0.0 - Partly cloudy 9 - - - -
18/06:30am 17.0 CALM 0 3 1016.7 - 0.0 - - 10 - - - -
18/06:00am 16.9 SSW 1 4 1016.4 - 0.0 - - 10 - - - -
18/05:30am 16.2 SSW 3 5 1016.4 - 0.0 - - 10 - - - -
18/05:00am 16.5 CALM 0 0 1016.2 - 0.0 - - 10 - - - -
18/04:30am 16.7 CALM 0 0 1016.1 - 0.0 - - 10 - - - -

Other Formats:

Comma delimited format used in spreadsheet applications
http://www.bom.gov.au/fwo/IDQ60701/IDQ60701.95565.axf

JavaScript Object Notation format (JSON) in row-major order
http://www.bom.gov.au/fwo/IDQ60701/IDQ60701.95565.json